To NAV CANADA Home Page Login to a new session Search on AWWS site Feedback and Comments Disclaimer Vers la page française équivalente Tips FAQ What's new on the site To the Forecasts and Observations / NOTAM section To "File a Flight Plan" website Publications and other links Update of the User's profile FIC Telephone Numbers My Weather Data Folder Route Weather Data Regional Weather Data Local Weather Data To the Forecasts and Observations / NOTAM section
Request Generated 08/29/2016 at 07:05:52 UTC . Weather information available at that time is displayed.

METAR/TAF

NAIN/NL    

LWIS CYDP 290700Z AUTO 33003KT 07/06 A3006=
LWIS CYDP 290600Z AUTO VRB02KT 07/06 A3006=
LWIS CYDP 290500Z AUTO 08004KT 07/06 A3007=

*** REMARK        : Forecast period has ended; this was the last TAF issued
*** REMARQUE : La période de prévision est échue; ceci était le dernier TAF qui a été émis
TAF AMD CYDP 282159Z 2821/2823 09012KT P6SM FEW020 BKN100
RMK NXT FCST WILL BE ISSUED AT 290945Z=
Your time UTC time
Weather data provided by Environment Canada and NAV CANADA